Time;durP1;ratioP1;P1;durP2;ratioP2;P2;SDS_P1;SDS_P2;PMS_P1;PMS_P2;Temp;Humidity;BMP_temperature;BMP_pressure;BME280_temperature;BME280_humidity;BME280_pressure;Samples;Min_cycle;Max_cycle;Signal;HPM_P1;HPM_P2
2023/03/27 00:00:16;;;;;;;;;;;;;;;;;;2080286;28;20646;-86
2023/03/27 00:01:16;;;;;;;9.93;6.37;;;;;;;;;;2070857;28;19992;-87
2023/03/27 00:02:19;;;;;;;12.30;5.45;;;;;;;;;;2062721;28;20391;-86
2023/03/27 00:03:19;;;;;;;10.57;5.53;;;;;;;;;;1722919;28;10070059;-86
2023/03/27 00:04:20;;;;;;;7.20;4.80;;;;;;;;;;2071689;28;20438;-86
2023/03/27 00:05:20;;;;;;;;;;;;;;;;;;2076997;28;20025;-86
2023/03/27 00:06:23;;;;;;;9.10;5.20;;;;;;;;;;2085525;28;19948;-86
2023/03/27 00:07:23;;;;;;;7.95;4.82;;;;;;;;;;2080183;28;20272;-87
2023/03/27 00:08:24;;;;;;;;;;;;;;;;;;2080776;28;20060;-86
2023/03/27 00:09:24;;;;;;;8.10;5.13;;;;;;;;;;2071140;28;19909;-86
2023/03/27 00:10:25;;;;;;;7.78;5.05;;;;;;;;;;2070995;28;20056;-86
2023/03/27 00:11:25;;;;;;;7.28;5.05;;;;;;;;;;2079929;28;20022;-86
2023/03/27 00:12:26;;;;;;;7.72;5.43;;;;;;;;;;2079946;28;20091;-86
2023/03/27 00:13:28;;;;;;;8.38;5.45;;;;;;;;;;2078596;28;20026;-86
2023/03/27 00:14:29;;;;;;;7.63;5.50;;;;;;;;;;2077665;28;20036;-86
2023/03/27 00:15:30;;;;;;;;;;;;;;;;;;2081883;28;20033;-86
2023/03/27 00:16:30;;;;;;;8.65;5.97;;;;;;;;;;2081434;28;19972;-86
2023/03/27 00:17:31;;;;;;;;;;;;;;;;;;2067943;28;20082;-86
2023/03/27 00:18:32;;;;;;;6.77;5.30;;;;;;;;;;2072537;28;19924;-87
2023/03/27 00:19:32;;;;;;;7.13;5.50;;;;;;;;;;2080227;28;20143;-86
2023/03/27 00:20:36;;;;;;;;;;;;;;;;;;2080135;28;20021;-86
2023/03/27 00:21:36;;;;;;;8.80;5.53;;;;;;;;;;2070733;28;19910;-87
2023/03/27 00:22:36;;;;;;;;;;;;;;;;;;2071170;28;20254;-87
2023/03/27 00:23:37;;;;;;;7.75;5.78;;;;;;;;;;2079462;28;19913;-87
2023/03/27 00:24:37;;;;;;;8.70;5.95;;;;;;;;;;2070659;28;20413;-87
2023/03/27 00:25:39;;;;;;;8.30;5.47;;;;;;;;;;2070623;28;20032;-87
2023/03/27 00:26:41;;;;;;;9.60;5.85;;;;;;;;;;2070983;28;20359;-87
2023/03/27 00:27:47;;;;;;;8.23;5.50;;;;;;;;;;1887193;28;10251391;-87
2023/03/27 00:28:48;;;;;;;7.38;5.80;;;;;;;;;;2079428;28;20250;-87
2023/03/27 00:29:48;;;;;;;;;;;;;;;;;;2071023;28;20443;-87
2023/03/27 00:30:48;;;;;;;8.47;6.23;;;;;;;;;;2062511;28;19910;-87
2023/03/27 00:31:49;;;;;;;;;;;;;;;;;;2071023;28;20026;-87
2023/03/27 00:32:49;;;;;;;9.80;5.87;;;;;;;;;;2079404;28;20347;-87
2023/03/27 00:33:50;;;;;;;8.55;5.95;;;;;;;;;;2085957;28;20040;-87
2023/03/27 00:34:50;;;;;;;;;;;;;;;;;;2090988;28;20171;-86
2023/03/27 00:35:51;;;;;;;8.47;6.43;;;;;;;;;;2080946;28;19924;-87
2023/03/27 00:36:52;;;;;;;;;;;;;;;;;;2065494;28;20165;-87
2023/03/27 00:37:53;;;;;;;7.68;5.15;;;;;;;;;;2063730;28;20400;-87
2023/03/27 00:38:53;;;;;;;9.18;6.30;;;;;;;;;;2071098;28;20060;-87
2023/03/27 00:39:54;;;;;;;;;;;;;;;;;;2079868;28;20033;-87
2023/03/27 00:40:55;;;;;;;7.82;5.53;;;;;;;;;;2070497;28;20567;-87
2023/03/27 00:41:55;;;;;;;8.82;6.63;;;;;;;;;;2062448;28;20038;-87
2023/03/27 00:42:56;;;;;;;10.82;6.35;;;;;;;;;;2062404;28;20057;-87
2023/03/27 00:43:57;;;;;;;;;;;;;;;;;;2070884;28;20022;-87
2023/03/27 00:44:57;;;;;;;8.85;6.75;;;;;;;;;;2079110;28;19921;-86
2023/03/27 00:46:00;;;;;;;;;;;;;;;;;;2079449;28;20065;-87
2023/03/27 00:47:02;;;;;;;8.63;6.07;;;;;;;;;;2079362;28;19916;-87
2023/03/27 00:48:07;;;;;;;10.30;6.43;;;;;;;;;;2079054;28;20447;-87
2023/03/27 00:49:10;;;;;;;8.07;6.18;;;;;;;;;;2079035;28;20839;-87
2023/03/27 00:50:19;;;;;;;7.50;5.93;;;;;;;;;;2070065;28;20030;-87
2023/03/27 00:51:22;;;;;;;8.25;5.90;;;;;;;;;;2070463;28;20026;-87
2023/03/27 00:52:28;;;;;;;8.15;5.82;;;;;;;;;;2070495;28;20345;-87
2023/03/27 00:53:29;;;;;;;8.98;5.85;;;;;;;;;;2070158;28;20180;-87
2023/03/27 00:54:34;;;;;;;7.28;5.50;;;;;;;;;;2070570;28;20029;-87
2023/03/27 00:55:37;;;;;;;6.82;5.45;;;;;;;;;;2082069;28;20032;-87
2023/03/27 00:56:37;;;;;;;7.60;5.88;;;;;;;;;;2079130;28;20025;-87
2023/03/27 00:57:38;;;;;;;;;;;;;;;;;;2079832;28;20075;-87
2023/03/27 00:58:43;;;;;;;8.30;6.18;;;;;;;;;;2080415;28;20379;-87
2023/03/27 00:59:45;;;;;;;6.63;5.35;;;;;;;;;;2085097;28;20033;-87
2023/03/27 01:00:50;;;;;;;9.38;5.55;;;;;;;;;;2075289;28;20034;-87
2023/03/27 01:01:51;;;;;;;8.13;5.50;;;;;;;;;;2071136;28;20028;-87
2023/03/27 01:02:51;;;;;;;8.55;5.20;;;;;;;;;;2070393;28;20481;-87
2023/03/27 01:03:52;;;;;;;;;;;;;;;;;;2071307;28;20026;-87
2023/03/27 01:04:54;;;;;;;8.82;5.65;;;;;;;;;;2079324;28;19909;-87
2023/03/27 01:05:58;;;;;;;8.25;5.80;;;;;;;;;;2070504;28;20029;-86
2023/03/27 01:06:59;;;;;;;8.70;6.22;;;;;;;;;;2071147;28;20425;-87
2023/03/27 01:08:01;;;;;;;8.02;5.97;;;;;;;;;;2082308;28;20074;-87
2023/03/27 01:09:03;;;;;;;8.98;6.53;;;;;;;;;;2070544;28;20419;-87
2023/03/27 01:10:05;;;;;;;10.68;5.82;;;;;;;;;;2062719;28;20562;-87
2023/03/27 01:11:28;;;;;;;8.77;6.18;;;;;;;;;;2070846;28;20049;-87
2023/03/27 01:12:56;;;;;;;9.73;6.47;;;;;;;;;;2079296;28;20025;-87
2023/03/27 01:14:36;;;;;;;10.27;6.38;;;;;;;;;;2070241;28;20115;-87
2023/03/27 01:15:40;;;;;;;9.65;5.72;;;;;;;;;;2061607;28;20072;-87
2023/03/27 01:16:52;;;;;;;10.38;6.10;;;;;;;;;;2063630;28;20107;-87
2023/03/27 01:18:29;;;;;;;7.10;6.05;;;;;;;;;;2079066;28;20503;-87
2023/03/27 01:19:52;;;;;;;7.75;5.80;;;;;;;;;;2070287;28;20085;-87
2023/03/27 01:21:07;;;;;;;9.38;6.10;;;;;;;;;;2065242;28;20022;-87
2023/03/27 01:22:43;;;;;;;8.40;5.50;;;;;;;;;;2064091;28;20529;-87
2023/03/27 01:24:29;;;;;;;6.65;5.20;;;;;;;;;;2066646;28;20157;-87
2023/03/27 01:26:07;;;;;;;7.53;5.57;;;;;;;;;;2076293;28;20112;-87
2023/03/27 01:27:39;;;;;;;8.90;6.03;;;;;;;;;;2070311;28;20499;-87
2023/03/27 01:29:05;;;;;;;8.38;5.90;;;;;;;;;;2060774;28;20037;-87
2023/03/27 01:30:15;;;;;;;11.93;6.03;;;;;;;;;;2073720;28;20087;-86
2023/03/27 01:31:43;;;;;;;11.18;6.85;;;;;;;;;;2070221;28;20030;-87
2023/03/27 01:33:16;;;;;;;8.23;5.43;;;;;;;;;;2074025;28;20040;-87
2023/03/27 01:34:34;;;;;;;8.93;5.88;;;;;;;;;;2079160;28;20036;-87
2023/03/27 01:36:05;;;;;;;7.70;6.10;;;;;;;;;;2070397;28;20068;-86
2023/03/27 01:37:05;;;;;;;7.45;5.28;;;;;;;;;;2066284;28;20026;-86
2023/03/27 01:38:08;;;;;;;;;;;;;;;;;;2070923;28;20061;-86
2023/03/27 01:39:24;;;;;;;6.43;4.55;;;;;;;;;;2070299;28;20342;-86
2023/03/27 01:40:42;;;;;;;7.20;5.72;;;;;;;;;;2064228;28;20034;-87
2023/03/27 01:41:56;;;;;;;8.20;5.68;;;;;;;;;;2064592;28;20468;-86
2023/03/27 01:43:00;;;;;;;7.57;5.00;;;;;;;;;;2072098;28;20025;-87
2023/03/27 01:44:24;;;;;;;7.40;5.60;;;;;;;;;;2078338;28;20018;-88
2023/03/27 01:45:49;;;;;;;8.40;5.43;;;;;;;;;;2067998;28;20141;-88
2023/03/27 01:46:54;;;;;;;5.78;4.57;;;;;;;;;;2078893;28;20033;-87
2023/03/27 01:47:54;;;;;;;6.93;5.22;;;;;;;;;;2081689;28;20028;-87
2023/03/27 01:48:56;;;;;;;;;;;;;;;;;;2079526;28;20105;-86
2023/03/27 01:50:08;;;;;;;5.95;4.70;;;;;;;;;;2079170;28;20015;-88
2023/03/27 01:51:26;;;;;;;8.80;5.38;;;;;;;;;;2070208;28;20567;-88
2023/03/27 01:52:32;;;;;;;8.73;5.43;;;;;;;;;;2064256;28;20455;-87
2023/03/27 01:53:39;;;;;;;7.80;5.22;;;;;;;;;;2065149;28;20064;-87
2023/03/27 01:54:54;;;;;;;8.35;5.32;;;;;;;;;;2070924;28;20054;-86
2023/03/27 01:56:04;;;;;;;8.32;5.85;;;;;;;;;;2064532;28;20029;-87
2023/03/27 01:57:16;;;;;;;7.72;5.57;;;;;;;;;;2063331;28;20042;-88
2023/03/27 01:58:21;;;;;;;8.93;5.53;;;;;;;;;;1719217;28;10205556;-87
2023/03/27 01:59:26;;;;;;;6.88;5.50;;;;;;;;;;2078973;28;20179;-87
2023/03/27 02:00:28;;;;;;;6.88;5.07;;;;;;;;;;2070264;28;20120;-87
2023/03/27 02:01:35;;;;;;;8.73;5.72;;;;;;;;;;2070272;28;20056;-88
2023/03/27 02:02:37;;;;;;;10.32;5.55;;;;;;;;;;2062939;28;20442;-88
2023/03/27 02:03:42;;;;;;;8.18;5.28;;;;;;;;;;2070627;28;20393;-87
2023/03/27 02:04:49;;;;;;;6.80;5.13;;;;;;;;;;2079153;28;20443;-88
2023/03/27 02:05:55;;;;;;;7.68;6.13;;;;;;;;;;2070497;28;20025;-87
2023/03/27 02:07:03;;;;;;;7.25;5.30;;;;;;;;;;2071233;28;20014;-88
2023/03/27 02:08:17;;;;;;;8.32;5.88;;;;;;;;;;2079384;28;20029;-87
2023/03/27 02:10:56;;;;;;;9.68;7.38;;;;;;;;;;2334847;22;20049;-86
2023/03/27 02:12:03;;;;;;;7.78;5.88;;;;;;;;;;2070829;28;20041;-86
2023/03/27 02:13:13;;;;;;;10.82;7.07;;;;;;;;;;2070976;28;20496;-86
2023/03/27 02:14:20;;;;;;;8.95;6.70;;;;;;;;;;1719285;28;10250165;-87
2023/03/27 02:15:25;;;;;;;10.90;7.80;;;;;;;;;;2062302;28;20295;-88
2023/03/27 02:16:32;;;;;;;9.55;7.68;;;;;;;;;;2062385;28;20210;-88
2023/03/27 02:17:37;;;;;;;11.25;7.90;;;;;;;;;;2070093;28;20029;-88
2023/03/27 02:18:46;;;;;;;13.00;7.78;;;;;;;;;;2070221;28;20110;-88
2023/03/27 02:19:55;;;;;;;10.32;7.70;;;;;;;;;;2070692;28;20424;-87
2023/03/27 02:20:56;;;;;;;10.27;7.72;;;;;;;;;;2071146;28;20036;-87
2023/03/27 02:21:57;;;;;;;;;;;;;;;;;;2062396;28;20046;-86
2023/03/27 02:23:06;;;;;;;9.37;6.77;;;;;;;;;;1922374;28;10002736;-87
2023/03/27 02:24:07;;;;;;;11.98;8.20;;;;;;;;;;2062983;28;20257;-88
2023/03/27 02:25:20;;;;;;;11.65;7.75;;;;;;;;;;2070647;28;20469;-88
2023/03/27 02:26:21;;;;;;;12.25;8.23;;;;;;;;;;2070610;28;20021;-88
2023/03/27 02:27:31;;;;;;;;;;;;;;;;;;2062054;28;20096;-87
2023/03/27 02:28:53;;;;;;;11.10;7.57;;;;;;;;;;2055077;28;19910;-88
2023/03/27 02:30:07;;;;;;;9.82;7.47;;;;;;;;;;2065558;28;20477;-88
2023/03/27 02:31:39;;;;;;;11.43;8.52;;;;;;;;;;2063593;28;20073;-88
2023/03/27 02:32:49;;;;;;;10.60;7.95;;;;;;;;;;2059836;28;20026;-87
2023/03/27 02:33:49;;;;;;;10.43;7.22;;;;;;;;;;2064760;28;20371;-88
2023/03/27 02:35:08;;;;;;;;;;;;;;;;;;2063788;28;20486;-87
2023/03/27 02:36:34;;;;;;;10.80;8.13;;;;;;;;;;2065764;28;19993;-86
2023/03/27 02:37:55;;;;;;;11.75;8.30;;;;;;;;;;2066066;28;20168;-87
2023/03/27 02:39:03;;;;;;;8.52;7.57;;;;;;;;;;2072148;28;20030;-88
2023/03/27 02:40:15;;;;;;;9.75;7.88;;;;;;;;;;2072318;28;20483;-87
2023/03/27 02:41:28;;;;;;;9.10;7.43;;;;;;;;;;2072152;28;20076;-87
2023/03/27 02:42:37;;;;;;;9.55;7.60;;;;;;;;;;2063209;28;20081;-85
2023/03/27 02:43:55;;;;;;;11.13;7.38;;;;;;;;;;2064593;28;20034;-87
2023/03/27 02:45:23;;;;;;;10.70;7.28;;;;;;;;;;2072144;28;20025;-87
2023/03/27 02:46:52;;;;;;;11.85;8.75;;;;;;;;;;2071833;28;20505;-87
2023/03/27 02:48:14;;;;;;;9.63;6.85;;;;;;;;;;2048889;28;20050;-87
2023/03/27 02:49:19;;;;;;;;;;;;;;;;;;2071709;28;20032;-87
2023/03/27 02:50:33;;;;;;;8.07;6.95;;;;;;;;;;2056559;28;19910;-87
2023/03/27 02:51:43;;;;;;;8.57;6.57;;;;;;;;;;2057422;28;20732;-86
2023/03/27 02:52:50;;;;;;;7.85;5.88;;;;;;;;;;2065607;28;20026;-87
2023/03/27 02:53:56;;;;;;;8.05;6.35;;;;;;;;;;2080113;28;20518;-87
2023/03/27 02:55:19;;;;;;;9.20;6.63;;;;;;;;;;2082038;28;20045;-87
2023/03/27 02:56:23;;;;;;;8.77;7.15;;;;;;;;;;2077569;28;20538;-86
2023/03/27 02:57:30;;;;;;;8.30;6.78;;;;;;;;;;2065808;28;20484;-87
2023/03/27 02:58:51;;;;;;;10.80;6.90;;;;;;;;;;2056985;28;20176;-86
2023/03/27 02:59:56;;;;;;;10.05;7.28;;;;;;;;;;2058073;28;20022;-86
2023/03/27 03:00:58;;;;;;;8.18;6.72;;;;;;;;;;2066650;28;20110;-87
2023/03/27 03:02:00;;;;;;;8.60;6.65;;;;;;;;;;2072220;28;20060;-88
2023/03/27 03:03:19;;;;;;;8.40;6.57;;;;;;;;;;2063369;28;20054;-88
2023/03/27 03:04:25;;;;;;;6.85;4.90;;;;;;;;;;2065815;28;20126;-88
2023/03/27 03:05:25;;;;;;;10.43;7.00;;;;;;;;;;2063170;28;20026;-88
2023/03/27 03:06:28;;;;;;;9.88;6.47;;;;;;;;;;2055079;28;20039;-87
2023/03/27 03:07:29;;;;;;;10.23;6.75;;;;;;;;;;2055482;28;20034;-88
2023/03/27 03:08:29;;;;;;;8.07;6.95;;;;;;;;;;2063083;28;20034;-86
2023/03/27 03:09:30;;;;;;;9.77;7.18;;;;;;;;;;2062995;28;20457;-86
2023/03/27 03:10:32;;;;;;;;;;;;;;;;;;2063547;28;20061;-87
2023/03/27 03:11:33;;;;;;;;;;;;;;;;;;2072619;28;19971;-86
2023/03/27 03:12:33;;;;;;;8.10;6.50;;;;;;;;;;2063322;28;19916;-86
2023/03/27 03:13:34;;;;;;;;;;;;;;;;;;2064686;28;20042;-86
2023/03/27 03:14:39;;;;;;;9.03;5.90;;;;;;;;;;2074215;28;19913;-88
2023/03/27 03:15:40;;;;;;;7.38;6.13;;;;;;;;;;2085653;28;20029;-88
2023/03/27 03:16:40;;;;;;;7.35;5.82;;;;;;;;;;2074190;28;20026;-88
2023/03/27 03:17:41;;;;;;;7.00;5.90;;;;;;;;;;2073073;28;20018;-88
2023/03/27 03:18:41;;;;;;;7.55;6.28;;;;;;;;;;2072579;28;20034;-88
2023/03/27 03:19:42;;;;;;;7.68;5.70;;;;;;;;;;2074722;28;20080;-88
2023/03/27 03:20:43;;;;;;;7.90;6.38;;;;;;;;;;2071137;28;20493;-88
2023/03/27 03:21:45;;;;;;;8.52;5.93;;;;;;;;;;2071868;28;20029;-88
2023/03/27 03:22:45;;;;;;;8.38;6.95;;;;;;;;;;2071663;28;20030;-87
2023/03/27 03:23:46;;;;;;;7.78;6.05;;;;;;;;;;2071820;28;20030;-87
2023/03/27 03:24:46;;;;;;;6.70;5.93;;;;;;;;;;2071675;28;20126;-87
2023/03/27 03:25:49;;;;;;;9.05;6.38;;;;;;;;;;2062883;28;20465;-87
2023/03/27 03:26:49;;;;;;;8.45;7.13;;;;;;;;;;2063332;28;20030;-87
2023/03/27 03:27:56;;;;;;;;;;;;;;;;;;2072030;28;20037;-86
2023/03/27 03:28:57;;;;;;;10.70;6.25;;;;;;;;;;2063737;28;19945;-88
2023/03/27 03:29:57;;;;;;;7.57;6.13;;;;;;;;;;2062993;28;20034;-88
2023/03/27 03:30:57;;;;;;;9.02;6.25;;;;;;;;;;2071615;28;20040;-87
2023/03/27 03:31:58;;;;;;;;;;;;;;;;;;2071372;28;20473;-86
2023/03/27 03:32:58;;;;;;;9.50;6.15;;;;;;;;;;2065109;28;20072;-86
2023/03/27 03:34:00;;;;;;;10.23;6.72;;;;;;;;;;2071680;28;20460;-86
2023/03/27 03:35:00;;;;;;;8.18;6.38;;;;;;;;;;2071140;28;20113;-86
2023/03/27 03:36:02;;;;;;;7.75;5.97;;;;;;;;;;2071076;28;20029;-87
2023/03/27 03:37:03;;;;;;;7.53;5.10;;;;;;;;;;2062835;28;20034;-86
2023/03/27 03:38:05;;;;;;;8.02;6.05;;;;;;;;;;2063111;28;20481;-86
2023/03/27 03:39:06;;;;;;;8.63;5.93;;;;;;;;;;2071624;28;20095;-87
2023/03/27 03:40:13;;;;;;;8.15;6.07;;;;;;;;;;2071789;28;20487;-86
2023/03/27 03:41:13;;;;;;;7.40;6.03;;;;;;;;;;2071658;28;20093;-86
2023/03/27 03:42:14;;;;;;;6.80;6.05;;;;;;;;;;2075031;28;20114;-87
2023/03/27 03:43:14;;;;;;;;;;;;;;;;;;2071210;28;20023;-86
2023/03/27 03:44:14;;;;;;;8.93;6.40;;;;;;;;;;2064283;28;19918;-88
2023/03/27 03:45:16;;;;;;;7.35;5.97;;;;;;;;;;2062856;28;20398;-86
2023/03/27 03:46:16;;;;;;;8.15;6.30;;;;;;;;;;2054883;28;20041;-87
2023/03/27 03:47:17;;;;;;;7.35;5.97;;;;;;;;;;2062896;28;20034;-86
2023/03/27 03:48:18;;;;;;;8.23;6.20;;;;;;;;;;2062678;28;20113;-88
2023/03/27 03:49:19;;;;;;;8.30;6.45;;;;;;;;;;2062866;28;20540;-86
2023/03/27 03:50:19;;;;;;;7.38;5.85;;;;;;;;;;2062500;28;20040;-86
2023/03/27 03:51:20;;;;;;;7.50;6.28;;;;;;;;;;2062497;28;20047;-88
2023/03/27 03:52:20;;;;;;;8.30;6.18;;;;;;;;;;2071665;28;20113;-88
2023/03/27 03:53:21;;;;;;;8.27;6.18;;;;;;;;;;2072031;28;20107;-88
2023/03/27 03:54:21;;;;;;;8.52;6.22;;;;;;;;;;2071720;28;20052;-88
2023/03/27 03:55:21;;;;;;;;;;;;;;;;;;2072536;28;20030;-88
2023/03/27 03:56:22;;;;;;;8.40;6.32;;;;;;;;;;2071743;28;19959;-88
2023/03/27 03:57:22;;;;;;;;;;;;;;;;;;2071277;28;20066;-88
2023/03/27 03:58:23;;;;;;;8.70;6.67;;;;;;;;;;2062668;28;19916;-88
2023/03/27 03:59:24;;;;;;;9.30;6.30;;;;;;;;;;2062943;28;20042;-88
2023/03/27 04:00:25;;;;;;;6.72;5.70;;;;;;;;;;2055254;28;20097;-86
2023/03/27 04:01:26;;;;;;;9.38;5.80;;;;;;;;;;2054755;28;20131;-87
2023/03/27 04:02:27;;;;;;;8.82;6.97;;;;;;;;;;2063004;28;20061;-86
2023/03/27 04:03:31;;;;;;;9.77;6.70;;;;;;;;;;2071795;28;20048;-87
2023/03/27 04:04:32;;;;;;;8.93;7.15;;;;;;;;;;2062934;28;20383;-87
2023/03/27 04:05:33;;;;;;;10.82;6.50;;;;;;;;;;2063055;28;20081;-87
2023/03/27 04:06:36;;;;;;;9.02;6.50;;;;;;;;;;2071765;28;20457;-87
2023/03/27 04:07:38;;;;;;;8.23;6.90;;;;;;;;;;2071793;28;20030;-87
2023/03/27 04:08:39;;;;;;;8.65;6.55;;;;;;;;;;2071393;28;20558;-86
2023/03/27 04:09:39;;;;;;;11.60;7.80;;;;;;;;;;2071743;28;20022;-86
2023/03/27 04:10:40;;;;;;;10.95;6.90;;;;;;;;;;2071388;28;20037;-87
2023/03/27 04:11:40;;;;;;;10.43;7.68;;;;;;;;;;2062763;28;20461;-87
2023/03/27 04:12:49;;;;;;;9.48;7.07;;;;;;;;;;2062440;28;20027;-86
2023/03/27 04:13:50;;;;;;;9.48;6.40;;;;;;;;;;2063491;28;20494;-87
2023/03/27 04:14:50;;;;;;;9.27;6.35;;;;;;;;;;2071846;28;20030;-86
2023/03/27 04:15:51;;;;;;;8.73;6.72;;;;;;;;;;2071236;28;20412;-87
2023/03/27 04:16:51;;;;;;;9.18;7.13;;;;;;;;;;2071963;28;20026;-87
2023/03/27 04:17:52;;;;;;;9.13;6.93;;;;;;;;;;2071036;28;20583;-87
2023/03/27 04:18:54;;;;;;;;;;;;;;;;;;2071400;28;20068;-86
2023/03/27 04:19:54;;;;;;;10.38;7.55;;;;;;;;;;2062430;28;19996;-87
2023/03/27 04:20:57;;;;;;;11.02;8.38;;;;;;;;;;2062480;28;20061;-87
2023/03/27 04:22:01;;;;;;;11.88;8.40;;;;;;;;;;2071240;28;20034;-86
2023/03/27 04:23:02;;;;;;;12.38;8.65;;;;;;;;;;2071489;28;20065;-86
2023/03/27 04:24:03;;;;;;;11.48;8.10;;;;;;;;;;2071367;28;20033;-86
2023/03/27 04:25:05;;;;;;;10.15;7.22;;;;;;;;;;2071212;28;20084;-86
2023/03/27 04:26:06;;;;;;;10.10;7.30;;;;;;;;;;2071590;28;20029;-86
2023/03/27 04:27:07;;;;;;;9.93;7.53;;;;;;;;;;2071445;28;20040;-86
2023/03/27 04:28:09;;;;;;;9.35;7.47;;;;;;;;;;2071265;28;20030;-86
2023/03/27 04:29:09;;;;;;;12.38;7.10;;;;;;;;;;2071161;28;20474;-86
2023/03/27 04:30:14;;;;;;;9.50;7.38;;;;;;;;;;2061775;28;20038;-86
2023/03/27 04:31:14;;;;;;;9.95;7.60;;;;;;;;;;2062839;28;20087;-86
2023/03/27 04:32:18;;;;;;;9.32;7.50;;;;;;;;;;2071313;28;20026;-86
2023/03/27 04:33:19;;;;;;;11.80;8.02;;;;;;;;;;2062359;28;20034;-86
2023/03/27 04:34:21;;;;;;;11.80;8.43;;;;;;;;;;2062449;28;20024;-86
2023/03/27 04:35:22;;;;;;;11.48;8.90;;;;;;;;;;2054578;28;20035;-86
2023/03/27 04:36:23;;;;;;;13.55;8.45;;;;;;;;;;2055443;28;20037;-86
2023/03/27 04:37:23;;;;;;;13.48;9.20;;;;;;;;;;2068567;28;20022;-85
2023/03/27 04:38:25;;;;;;;16.13;9.18;;;;;;;;;;2076143;28;20065;-86
2023/03/27 04:39:25;;;;;;;14.40;9.98;;;;;;;;;;2071517;28;20044;-86
2023/03/27 04:40:25;;;;;;;14.77;9.85;;;;;;;;;;2071671;28;20045;-86
2023/03/27 04:41:28;;;;;;;12.70;9.43;;;;;;;;;;2071576;28;20037;-86
2023/03/27 04:42:28;;;;;;;15.23;10.57;;;;;;;;;;2071338;28;20030;-86
2023/03/27 04:43:29;;;;;;;14.55;9.95;;;;;;;;;;2071280;28;20061;-86
2023/03/27 04:44:30;;;;;;;17.58;11.32;;;;;;;;;;2071487;28;20461;-88
2023/03/27 04:45:31;;;;;;;;;;;;;;;;;;2071786;28;20037;-87
2023/03/27 04:46:31;;;;;;;17.80;11.95;;;;;;;;;;2071111;28;19914;-88
2023/03/27 04:47:36;;;;;;;;;;;;;;;;;;2062721;28;20507;-86
2023/03/27 04:48:37;;;;;;;15.77;11.75;;;;;;;;;;2062994;28;19917;-88
2023/03/27 04:49:39;;;;;;;18.27;12.27;;;;;;;;;;2071348;28;20018;-87
2023/03/27 04:50:42;;;;;;;19.50;12.60;;;;;;;;;;2071105;28;20504;-88
2023/03/27 04:51:44;;;;;;;22.65;12.75;;;;;;;;;;2070949;28;20036;-88
2023/03/27 04:52:46;;;;;;;19.48;12.60;;;;;;;;;;2071235;28;20022;-87
2023/03/27 04:53:46;;;;;;;18.63;12.45;;;;;;;;;;2061272;28;20029;-86
2023/03/27 04:54:47;;;;;;;21.77;14.23;;;;;;;;;;2054296;28;20473;-88
2023/03/27 04:55:49;;;;;;;;;;;;;;;;;;2054766;28;20493;-88
2023/03/27 04:56:50;;;;;;;22.23;13.40;;;;;;;;;;2062578;28;20382;-87
2023/03/27 04:57:50;;;;;;;21.65;13.27;;;;;;;;;;2062512;28;20030;-86
2023/03/27 04:58:50;;;;;;;;;;;;;;;;;;2054924;28;20117;-87
2023/03/27 04:59:51;;;;;;;23.52;12.93;;;;;;;;;;1709483;28;10250472;-86
2023/03/27 05:00:54;;;;;;;22.25;13.07;;;;;;;;;;2062258;28;20042;-86
2023/03/27 05:01:56;;;;;;;20.63;12.68;;;;;;;;;;2062643;28;20030;-86
2023/03/27 05:02:59;;;;;;;19.63;13.20;;;;;;;;;;2070827;28;20088;-86
2023/03/27 05:04:01;;;;;;;20.90;13.18;;;;;;;;;;2070959;28;20018;-87
2023/03/27 05:05:01;;;;;;;21.83;13.20;;;;;;;;;;2061962;28;20417;-88
2023/03/27 05:06:03;;;;;;;21.58;12.98;;;;;;;;;;2062551;28;20052;-87
2023/03/27 05:07:03;;;;;;;21.70;12.35;;;;;;;;;;2071376;28;20037;-87
2023/03/27 05:08:04;;;;;;;23.13;13.43;;;;;;;;;;2071477;28;20026;-86
2023/03/27 05:09:04;;;;;;;22.48;13.95;;;;;;;;;;2072432;28;20037;-87
2023/03/27 05:10:05;;;;;;;20.10;12.77;;;;;;;;;;2073121;28;20025;-87
2023/03/27 05:11:06;;;;;;;24.35;14.00;;;;;;;;;;2066350;28;20042;-89
2023/03/27 05:12:07;;;;;;;22.13;15.27;;;;;;;;;;2064492;28;20064;-88
2023/03/27 05:13:07;;;;;;;22.73;14.40;;;;;;;;;;2072334;28;20073;-88
2023/03/27 05:14:07;;;;;;;20.30;13.45;;;;;;;;;;2071330;28;20032;-88
2023/03/27 05:15:08;;;;;;;23.10;14.05;;;;;;;;;;2062342;28;20473;-89
2023/03/27 05:16:09;;;;;;;21.70;13.73;;;;;;;;;;2062389;28;20065;-89
2023/03/27 05:17:09;;;;;;;24.38;14.93;;;;;;;;;;2071014;28;20307;-89
2023/03/27 05:18:10;;;;;;;24.90;15.48;;;;;;;;;;2071291;28;20049;-89
2023/03/27 05:19:11;;;;;;;22.05;14.55;;;;;;;;;;2072066;28;20029;-89
2023/03/27 05:20:15;;;;;;;25.92;15.07;;;;;;;;;;2071438;28;20033;-89
2023/03/27 05:21:16;;;;;;;23.63;14.65;;;;;;;;;;2062540;28;20034;-88
2023/03/27 05:22:16;;;;;;;24.88;14.40;;;;;;;;;;2062521;28;20104;-88
2023/03/27 05:23:17;;;;;;;26.10;14.52;;;;;;;;;;1724492;28;10001738;-88
2023/03/27 05:24:18;;;;;;;27.38;14.77;;;;;;;;;;2063320;28;20533;-87
2023/03/27 05:25:19;;;;;;;25.77;15.32;;;;;;;;;;2062936;28;20052;-87
2023/03/27 05:26:20;;;;;;;22.00;13.77;;;;;;;;;;2070334;28;20100;-88
2023/03/27 05:27:21;;;;;;;22.88;14.70;;;;;;;;;;2062483;28;20076;-88
2023/03/27 05:28:22;;;;;;;19.52;13.20;;;;;;;;;;2062296;28;20030;-88
2023/03/27 05:29:22;;;;;;;20.75;12.93;;;;;;;;;;2069529;28;20038;-87
2023/03/27 05:30:23;;;;;;;15.68;10.88;;;;;;;;;;2073303;28;20036;-87
2023/03/27 05:31:26;;;;;;;26.52;17.08;;;;;;;;;;2073339;28;20121;-87
2023/03/27 05:32:26;;;;;;;25.58;16.65;;;;;;;;;;2067162;28;20133;-88
2023/03/27 05:33:26;;;;;;;18.45;14.20;;;;;;;;;;2064140;28;20034;-87
2023/03/27 05:34:27;;;;;;;22.10;15.07;;;;;;;;;;2071241;28;20045;-87
2023/03/27 05:35:27;;;;;;;25.98;15.03;;;;;;;;;;1716264;28;10062379;-88
2023/03/27 05:36:28;;;;;;;25.95;16.17;;;;;;;;;;2062908;28;20080;-89
2023/03/27 05:37:29;;;;;;;29.58;16.55;;;;;;;;;;2072119;28;20045;-86
2023/03/27 05:38:30;;;;;;;29.27;16.67;;;;;;;;;;2070820;28;20132;-88
2023/03/27 05:39:30;;;;;;;32.08;17.55;;;;;;;;;;2070747;28;20029;-88
2023/03/27 05:40:31;;;;;;;30.17;17.20;;;;;;;;;;2061809;28;20030;-88
2023/03/27 05:41:31;;;;;;;32.95;18.90;;;;;;;;;;2061811;28;20026;-88
2023/03/27 05:42:31;;;;;;;;;;;;;;;;;;2070636;28;20068;-88
2023/03/27 05:43:32;;;;;;;34.17;18.23;;;;;;;;;;2070861;28;19910;-88
2023/03/27 05:44:32;;;;;;;30.40;17.88;;;;;;;;;;2070999;28;20189;-88
2023/03/27 05:45:33;;;;;;;;;;;;;;;;;;2071353;28;20472;-89
2023/03/27 05:46:33;;;;;;;31.10;18.70;;;;;;;;;;2070550;28;20011;-87
2023/03/27 05:47:56;;;;;;;30.08;18.65;;;;;;;;;;2070688;28;20030;-88
2023/03/27 05:48:59;;;;;;;29.70;17.77;;;;;;;;;;2081046;28;20014;-88
2023/03/27 05:50:02;;;;;;;29.98;17.45;;;;;;;;;;2073118;28;20050;-88
2023/03/27 05:51:04;;;;;;;27.80;16.02;;;;;;;;;;2063729;28;20110;-88
2023/03/27 05:52:05;;;;;;;20.45;11.68;;;;;;;;;;2068374;28;20041;-87
2023/03/27 05:53:09;;;;;;;28.27;16.73;;;;;;;;;;2077762;28;20164;-88
2023/03/27 05:54:10;;;;;;;25.08;15.10;;;;;;;;;;2061772;28;20181;-88
2023/03/27 05:55:13;;;;;;;11.57;8.07;;;;;;;;;;2061722;28;20104;-88
2023/03/27 05:56:14;;;;;;;17.38;9.45;;;;;;;;;;2061778;28;20101;-86
2023/03/27 05:57:14;;;;;;;10.20;7.40;;;;;;;;;;2062037;28;20078;-87
2023/03/27 05:58:14;;;;;;;11.38;7.10;;;;;;;;;;2070733;28;20077;-87
2023/03/27 05:59:16;;;;;;;13.90;8.13;;;;;;;;;;1715707;28;10264149;-87
2023/03/27 06:00:24;;;;;;;10.63;7.05;;;;;;;;;;2061600;28;20034;-86
2023/03/27 06:01:25;;;;;;;8.40;6.65;;;;;;;;;;2063410;28;20633;-87
2023/03/27 06:02:32;;;;;;;8.88;6.88;;;;;;;;;;2062136;28;20084;-88
2023/03/27 06:03:39;;;;;;;7.53;6.65;;;;;;;;;;2052120;28;20046;-88
2023/03/27 06:04:41;;;;;;;12.48;7.38;;;;;;;;;;2047149;28;20525;-87
2023/03/27 06:05:41;;;;;;;11.57;7.57;;;;;;;;;;2063087;28;20074;-87
2023/03/27 06:06:42;;;;;;;9.60;7.03;;;;;;;;;;2063097;28;20065;-88
2023/03/27 06:07:43;;;;;;;8.48;6.88;;;;;;;;;;2070231;28;20060;-87
2023/03/27 06:08:44;;;;;;;10.40;6.80;;;;;;;;;;2067446;28;20030;-88
2023/03/27 06:10:19;;;;;;;9.55;7.10;;;;;;;;;;2070735;28;20034;-88
2023/03/27 06:11:19;;;;;;;10.13;7.20;;;;;;;;;;2064799;28;20052;-87
2023/03/27 06:12:22;;;;;;;8.27;6.35;;;;;;;;;;2076359;28;20520;-87
2023/03/27 06:13:23;;;;;;;9.48;6.63;;;;;;;;;;2067006;28;20105;-88
2023/03/27 06:14:33;;;;;;;7.63;6.35;;;;;;;;;;2079354;28;20053;-87
2023/03/27 06:16:24;;;;;;;9.75;7.40;;;;;;;;;;2080051;28;20042;-86
2023/03/27 06:17:25;;;;;;;8.75;7.10;;;;;;;;;;1720301;28;10073795;-89
2023/03/27 06:18:26;;;;;;;10.10;7.10;;;;;;;;;;2062907;28;20177;-89
2023/03/27 06:21:32;;;;;;;11.68;6.80;;;;;;;;;;2034619;29;20102;-88
2023/03/27 06:23:10;;;;;;;8.30;6.68;;;;;;;;;;2070564;28;20108;-88
2023/03/27 06:24:10;;;;;;;10.00;7.22;;;;;;;;;;2070013;28;20034;-89
2023/03/27 06:25:16;;;;;;;10.55;7.15;;;;;;;;;;2071303;28;20030;-88
2023/03/27 06:27:32;;;;;;;9.35;6.30;;;;;;;;;;2309402;22;21171;-87
2023/03/27 06:28:39;;;;;;;10.48;6.70;;;;;;;;;;2069337;28;20174;-88
2023/03/27 06:29:40;;;;;;;10.38;6.50;;;;;;;;;;2072983;28;20324;-87
2023/03/27 06:30:41;;;;;;;8.93;6.32;;;;;;;;;;2081292;28;20097;-89
2023/03/27 06:31:42;;;;;;;7.90;7.00;;;;;;;;;;2082317;28;20041;-87
2023/03/27 06:32:45;;;;;;;8.57;6.57;;;;;;;;;;2079690;28;20026;-88
2023/03/27 06:33:45;;;;;;;8.05;6.07;;;;;;;;;;2075030;28;20037;-88
2023/03/27 06:34:48;;;;;;;5.90;4.60;;;;;;;;;;2066559;28;20393;-88